sensor_id;sensor_type;location;lat;lon;timestamp;P1;durP1;ratioP1;P2;durP2;ratioP2
74626;SDS011;63132;52.268;5.192;2022-10-15T00:00:05;45.40;;;27.73;;
74626;SDS011;63132;52.268;5.192;2022-10-15T00:02:31;45.40;;;28.33;;
74626;SDS011;63132;52.268;5.192;2022-10-15T00:04:57;52.37;;;30.10;;
74626;SDS011;63132;52.268;5.192;2022-10-15T00:07:23;50.13;;;29.43;;
74626;SDS011;63132;52.268;5.192;2022-10-15T00:09:49;44.72;;;29.50;;
74626;SDS011;63132;52.268;5.192;2022-10-15T00:12:14;49.35;;;30.27;;
74626;SDS011;63132;52.268;5.192;2022-10-15T00:14:40;48.70;;;29.88;;
74626;SDS011;63132;52.268;5.192;2022-10-15T00:17:06;48.33;;;30.88;;
74626;SDS011;63132;52.268;5.192;2022-10-15T00:19:31;51.17;;;30.02;;
74626;SDS011;63132;52.268;5.192;2022-10-15T00:21:57;50.03;;;29.10;;
74626;SDS011;63132;52.268;5.192;2022-10-15T00:24:22;47.57;;;30.30;;
74626;SDS011;63132;52.268;5.192;2022-10-15T00:26:48;49.92;;;31.13;;
74626;SDS011;63132;52.268;5.192;2022-10-15T00:29:13;48.40;;;30.53;;
74626;SDS011;63132;52.268;5.192;2022-10-15T00:31:38;51.43;;;30.53;;
74626;SDS011;63132;52.268;5.192;2022-10-15T00:34:04;58.53;;;32.03;;
74626;SDS011;63132;52.268;5.192;2022-10-15T00:36:30;61.47;;;33.40;;
74626;SDS011;63132;52.268;5.192;2022-10-15T00:38:58;55.78;;;33.53;;
74626;SDS011;63132;52.268;5.192;2022-10-15T00:41:27;56.43;;;33.50;;
74626;SDS011;63132;52.268;5.192;2022-10-15T00:52:11;59.47;;;35.17;;
74626;SDS011;63132;52.268;5.192;2022-10-15T00:54:41;66.05;;;38.65;;
74626;SDS011;63132;52.268;5.192;2022-10-15T00:57:11;74.35;;;39.53;;
74626;SDS011;63132;52.268;5.192;2022-10-15T00:59:40;74.97;;;39.40;;
74626;SDS011;63132;52.268;5.192;2022-10-15T01:02:08;68.43;;;38.20;;
74626;SDS011;63132;52.268;5.192;2022-10-15T01:04:35;77.22;;;42.53;;
74626;SDS011;63132;52.268;5.192;2022-10-15T01:07:00;81.30;;;41.90;;
74626;SDS011;63132;52.268;5.192;2022-10-15T01:09:26;75.67;;;40.83;;
74626;SDS011;63132;52.268;5.192;2022-10-15T01:11:52;73.78;;;40.83;;
74626;SDS011;63132;52.268;5.192;2022-10-15T01:30:59;87.28;;;46.42;;
74626;SDS011;63132;52.268;5.192;2022-10-15T01:33:41;92.10;;;48.13;;
74626;SDS011;63132;52.268;5.192;2022-10-15T01:36:15;93.60;;;48.15;;
74626;SDS011;63132;52.268;5.192;2022-10-15T01:41:27;81.38;;;46.40;;
74626;SDS011;63132;52.268;5.192;2022-10-15T01:44:08;115.47;;;54.83;;
74626;SDS011;63132;52.268;5.192;2022-10-15T01:49:24;115.40;;;57.43;;
74626;SDS011;63132;52.268;5.192;2022-10-15T01:51:52;98.00;;;52.40;;
74626;SDS011;63132;52.268;5.192;2022-10-15T01:54:19;106.40;;;54.20;;
74626;SDS011;63132;52.268;5.192;2022-10-15T01:56:49;121.45;;;58.15;;
74626;SDS011;63132;52.268;5.192;2022-10-15T01:59:17;121.80;;;59.83;;
74626;SDS011;63132;52.268;5.192;2022-10-15T02:01:45;122.18;;;61.38;;
74626;SDS011;63132;52.268;5.192;2022-10-15T02:07:04;119.43;;;58.92;;
74626;SDS011;63132;52.268;5.192;2022-10-15T02:09:49;119.68;;;57.58;;
74626;SDS011;63132;52.268;5.192;2022-10-15T02:20:10;149.30;;;67.93;;
74626;SDS011;63132;52.268;5.192;2022-10-15T02:23:00;114.07;;;57.45;;
74626;SDS011;63132;52.268;5.192;2022-10-15T02:25:30;144.57;;;65.85;;
74626;SDS011;63132;52.268;5.192;2022-10-15T02:27:59;128.23;;;59.50;;
74626;SDS011;63132;52.268;5.192;2022-10-15T02:30:27;142.73;;;64.97;;
74626;SDS011;63132;52.268;5.192;2022-10-15T02:32:55;136.60;;;62.83;;
74626;SDS011;63132;52.268;5.192;2022-10-15T02:35:22;147.32;;;67.47;;
74626;SDS011;63132;52.268;5.192;2022-10-15T02:37:51;154.38;;;67.50;;
74626;SDS011;63132;52.268;5.192;2022-10-15T02:40:21;161.07;;;73.38;;
74626;SDS011;63132;52.268;5.192;2022-10-15T02:42:51;159.13;;;70.45;;
74626;SDS011;63132;52.268;5.192;2022-10-15T02:45:17;172.70;;;74.20;;
74626;SDS011;63132;52.268;5.192;2022-10-15T02:47:42;160.67;;;71.37;;
74626;SDS011;63132;52.268;5.192;2022-10-15T02:50:07;181.75;;;77.00;;
74626;SDS011;63132;52.268;5.192;2022-10-15T02:52:33;183.83;;;76.97;;
74626;SDS011;63132;52.268;5.192;2022-10-15T02:54:58;168.23;;;74.50;;
74626;SDS011;63132;52.268;5.192;2022-10-15T02:57:24;160.93;;;70.93;;
74626;SDS011;63132;52.268;5.192;2022-10-15T02:59:49;163.57;;;73.07;;
74626;SDS011;63132;52.268;5.192;2022-10-15T03:02:15;141.27;;;65.47;;
74626;SDS011;63132;52.268;5.192;2022-10-15T03:04:40;135.63;;;64.57;;
74626;SDS011;63132;52.268;5.192;2022-10-15T03:07:06;135.48;;;62.13;;
74626;SDS011;63132;52.268;5.192;2022-10-15T03:09:31;163.40;;;73.27;;
74626;SDS011;63132;52.268;5.192;2022-10-15T03:11:57;169.80;;;72.97;;
74626;SDS011;63132;52.268;5.192;2022-10-15T03:14:22;158.30;;;69.70;;
74626;SDS011;63132;52.268;5.192;2022-10-15T03:16:48;150.52;;;67.35;;
74626;SDS011;63132;52.268;5.192;2022-10-15T03:19:13;180.23;;;75.77;;
74626;SDS011;63132;52.268;5.192;2022-10-15T03:21:38;161.37;;;69.03;;
74626;SDS011;63132;52.268;5.192;2022-10-15T03:24:04;162.52;;;70.38;;
74626;SDS011;63132;52.268;5.192;2022-10-15T03:26:30;143.63;;;64.18;;
74626;SDS011;63132;52.268;5.192;2022-10-15T03:28:55;157.13;;;71.90;;
74626;SDS011;63132;52.268;5.192;2022-10-15T03:31:21;151.83;;;67.20;;
74626;SDS011;63132;52.268;5.192;2022-10-15T03:33:46;168.75;;;72.68;;
74626;SDS011;63132;52.268;5.192;2022-10-15T03:36:11;162.20;;;69.70;;
74626;SDS011;63132;52.268;5.192;2022-10-15T03:38:37;174.90;;;75.90;;
74626;SDS011;63132;52.268;5.192;2022-10-15T03:41:02;143.77;;;67.87;;
74626;SDS011;63132;52.268;5.192;2022-10-15T03:43:28;164.32;;;72.40;;
74626;SDS011;63132;52.268;5.192;2022-10-15T03:45:53;179.63;;;75.87;;
74626;SDS011;63132;52.268;5.192;2022-10-15T03:48:19;152.53;;;67.47;;
74626;SDS011;63132;52.268;5.192;2022-10-15T03:50:44;168.50;;;74.78;;
74626;SDS011;63132;52.268;5.192;2022-10-15T03:53:10;156.93;;;69.38;;
74626;SDS011;63132;52.268;5.192;2022-10-15T03:55:36;165.73;;;70.87;;
74626;SDS011;63132;52.268;5.192;2022-10-15T03:58:01;141.45;;;65.40;;
74626;SDS011;63132;52.268;5.192;2022-10-15T04:00:29;159.35;;;67.82;;
74626;SDS011;63132;52.268;5.192;2022-10-15T04:02:55;139.87;;;64.13;;
74626;SDS011;63132;52.268;5.192;2022-10-15T04:05:20;165.30;;;71.63;;
74626;SDS011;63132;52.268;5.192;2022-10-15T04:07:46;180.60;;;75.90;;
74626;SDS011;63132;52.268;5.192;2022-10-15T04:10:11;158.90;;;69.63;;
74626;SDS011;63132;52.268;5.192;2022-10-15T04:12:36;168.27;;;71.50;;
74626;SDS011;63132;52.268;5.192;2022-10-15T04:15:02;147.93;;;67.03;;
74626;SDS011;63132;52.268;5.192;2022-10-15T04:17:28;200.00;;;78.88;;
74626;SDS011;63132;52.268;5.192;2022-10-15T04:19:53;159.97;;;68.73;;
74626;SDS011;63132;52.268;5.192;2022-10-15T04:22:19;164.93;;;73.80;;
74626;SDS011;63132;52.268;5.192;2022-10-15T04:24:44;188.03;;;77.43;;
74626;SDS011;63132;52.268;5.192;2022-10-15T04:27:11;151.70;;;68.17;;
74626;SDS011;63132;52.268;5.192;2022-10-15T04:29:37;152.47;;;71.07;;
74626;SDS011;63132;52.268;5.192;2022-10-15T04:32:02;142.77;;;67.17;;
74626;SDS011;63132;52.268;5.192;2022-10-15T04:34:27;172.73;;;73.40;;
74626;SDS011;63132;52.268;5.192;2022-10-15T04:36:53;147.17;;;68.43;;
74626;SDS011;63132;52.268;5.192;2022-10-15T04:39:18;182.47;;;77.60;;
74626;SDS011;63132;52.268;5.192;2022-10-15T04:41:44;160.73;;;72.72;;
74626;SDS011;63132;52.268;5.192;2022-10-15T04:44:09;167.53;;;74.70;;
74626;SDS011;63132;52.268;5.192;2022-10-15T04:46:35;184.83;;;78.93;;
74626;SDS011;63132;52.268;5.192;2022-10-15T04:49:00;149.88;;;69.38;;
74626;SDS011;63132;52.268;5.192;2022-10-15T04:51:25;155.23;;;72.03;;
74626;SDS011;63132;52.268;5.192;2022-10-15T04:53:51;143.10;;;71.37;;
74626;SDS011;63132;52.268;5.192;2022-10-15T04:56:18;141.77;;;70.28;;
74626;SDS011;63132;52.268;5.192;2022-10-15T04:58:45;123.88;;;64.22;;
74626;SDS011;63132;52.268;5.192;2022-10-15T05:01:13;116.80;;;61.70;;
74626;SDS011;63132;52.268;5.192;2022-10-15T05:03:41;132.32;;;67.60;;
74626;SDS011;63132;52.268;5.192;2022-10-15T05:06:12;109.38;;;62.10;;
74626;SDS011;63132;52.268;5.192;2022-10-15T05:08:41;117.45;;;65.35;;
74626;SDS011;63132;52.268;5.192;2022-10-15T05:11:08;105.82;;;60.40;;
74626;SDS011;63132;52.268;5.192;2022-10-15T05:13:42;108.85;;;61.47;;
74626;SDS011;63132;52.268;5.192;2022-10-15T05:16:21;115.45;;;63.60;;
74626;SDS011;63132;52.268;5.192;2022-10-15T05:18:51;109.40;;;64.07;;
74626;SDS011;63132;52.268;5.192;2022-10-15T05:21:20;104.80;;;59.15;;
74626;SDS011;63132;52.268;5.192;2022-10-15T05:23:45;102.77;;;61.23;;
74626;SDS011;63132;52.268;5.192;2022-10-15T05:26:15;99.90;;;60.42;;
74626;SDS011;63132;52.268;5.192;2022-10-15T05:28:42;105.72;;;59.92;;
74626;SDS011;63132;52.268;5.192;2022-10-15T05:31:09;111.23;;;63.40;;
74626;SDS011;63132;52.268;5.192;2022-10-15T05:33:36;111.07;;;62.58;;
74626;SDS011;63132;52.268;5.192;2022-10-15T05:36:12;103.78;;;60.72;;
74626;SDS011;63132;52.268;5.192;2022-10-15T05:38:41;104.57;;;63.08;;
74626;SDS011;63132;52.268;5.192;2022-10-15T05:41:07;90.70;;;58.38;;
74626;SDS011;63132;52.268;5.192;2022-10-15T05:43:32;92.50;;;57.13;;
74626;SDS011;63132;52.268;5.192;2022-10-15T05:45:58;86.60;;;56.37;;
74626;SDS011;63132;52.268;5.192;2022-10-15T05:48:23;102.05;;;60.78;;
74626;SDS011;63132;52.268;5.192;2022-10-15T05:50:49;96.07;;;59.83;;
74626;SDS011;63132;52.268;5.192;2022-10-15T05:53:14;89.38;;;56.60;;
74626;SDS011;63132;52.268;5.192;2022-10-15T05:55:40;95.93;;;57.85;;
74626;SDS011;63132;52.268;5.192;2022-10-15T05:58:05;102.73;;;61.17;;
74626;SDS011;63132;52.268;5.192;2022-10-15T06:00:31;92.57;;;58.80;;
74626;SDS011;63132;52.268;5.192;2022-10-15T06:02:57;92.47;;;57.10;;
74626;SDS011;63132;52.268;5.192;2022-10-15T06:05:22;108.03;;;61.33;;
74626;SDS011;63132;52.268;5.192;2022-10-15T06:07:48;97.47;;;59.72;;
74626;SDS011;63132;52.268;5.192;2022-10-15T06:10:13;95.20;;;59.07;;
74626;SDS011;63132;52.268;5.192;2022-10-15T06:12:38;107.30;;;61.60;;
74626;SDS011;63132;52.268;5.192;2022-10-15T06:15:05;109.60;;;61.30;;
74626;SDS011;63132;52.268;5.192;2022-10-15T06:17:30;104.03;;;57.25;;
74626;SDS011;63132;52.268;5.192;2022-10-15T06:19:56;106.97;;;58.53;;
74626;SDS011;63132;52.268;5.192;2022-10-15T06:22:21;101.85;;;56.15;;
74626;SDS011;63132;52.268;5.192;2022-10-15T06:24:47;115.27;;;59.67;;
74626;SDS011;63132;52.268;5.192;2022-10-15T06:27:12;117.17;;;60.50;;
74626;SDS011;63132;52.268;5.192;2022-10-15T06:29:38;117.30;;;60.03;;
74626;SDS011;63132;52.268;5.192;2022-10-15T06:32:04;98.53;;;54.63;;
74626;SDS011;63132;52.268;5.192;2022-10-15T06:34:32;99.78;;;54.55;;
74626;SDS011;63132;52.268;5.192;2022-10-15T06:36:58;110.00;;;55.70;;
74626;SDS011;63132;52.268;5.192;2022-10-15T06:39:23;107.30;;;55.43;;
74626;SDS011;63132;52.268;5.192;2022-10-15T06:41:48;103.78;;;53.95;;
74626;SDS011;63132;52.268;5.192;2022-10-15T06:44:14;100.47;;;54.07;;
74626;SDS011;63132;52.268;5.192;2022-10-15T06:46:39;101.27;;;52.77;;
74626;SDS011;63132;52.268;5.192;2022-10-15T06:49:05;100.43;;;53.03;;
74626;SDS011;63132;52.268;5.192;2022-10-15T06:51:30;102.13;;;53.23;;
74626;SDS011;63132;52.268;5.192;2022-10-15T06:53:56;115.60;;;55.73;;
74626;SDS011;63132;52.268;5.192;2022-10-15T06:56:21;129.43;;;57.60;;
74626;SDS011;63132;52.268;5.192;2022-10-15T06:58:46;116.97;;;55.67;;
74626;SDS011;63132;52.268;5.192;2022-10-15T07:01:12;113.23;;;53.60;;
74626;SDS011;63132;52.268;5.192;2022-10-15T07:03:37;102.88;;;51.97;;
74626;SDS011;63132;52.268;5.192;2022-10-15T07:06:03;102.77;;;51.13;;
74626;SDS011;63132;52.268;5.192;2022-10-15T07:08:30;104.57;;;51.07;;
74626;SDS011;63132;52.268;5.192;2022-10-15T07:10:56;105.32;;;50.28;;
74626;SDS011;63132;52.268;5.192;2022-10-15T07:13:21;102.73;;;50.63;;
74626;SDS011;63132;52.268;5.192;2022-10-15T07:15:47;100.80;;;49.47;;
74626;SDS011;63132;52.268;5.192;2022-10-15T07:18:17;94.05;;;47.75;;
74626;SDS011;63132;52.268;5.192;2022-10-15T07:20:43;97.10;;;47.45;;
74626;SDS011;63132;52.268;5.192;2022-10-15T07:23:08;93.97;;;46.30;;
74626;SDS011;63132;52.268;5.192;2022-10-15T07:25:34;96.53;;;47.43;;
74626;SDS011;63132;52.268;5.192;2022-10-15T07:27:59;90.10;;;45.60;;
74626;SDS011;63132;52.268;5.192;2022-10-15T07:30:25;104.83;;;48.43;;
74626;SDS011;63132;52.268;5.192;2022-10-15T07:32:56;100.10;;;47.85;;
74626;SDS011;63132;52.268;5.192;2022-10-15T07:35:23;92.40;;;45.00;;
74626;SDS011;63132;52.268;5.192;2022-10-15T07:37:49;89.78;;;43.85;;
74626;SDS011;63132;52.268;5.192;2022-10-15T07:40:15;93.53;;;46.40;;
74626;SDS011;63132;52.268;5.192;2022-10-15T07:42:41;98.95;;;46.97;;
74626;SDS011;63132;52.268;5.192;2022-10-15T07:45:07;100.88;;;47.75;;
74626;SDS011;63132;52.268;5.192;2022-10-15T07:47:33;99.53;;;46.67;;
74626;SDS011;63132;52.268;5.192;2022-10-15T07:49:58;98.17;;;47.10;;
74626;SDS011;63132;52.268;5.192;2022-10-15T07:52:24;109.00;;;49.00;;
74626;SDS011;63132;52.268;5.192;2022-10-15T07:54:49;105.90;;;47.38;;
74626;SDS011;63132;52.268;5.192;2022-10-15T07:57:15;99.33;;;45.57;;
74626;SDS011;63132;52.268;5.192;2022-10-15T07:59:41;111.95;;;48.95;;
74626;SDS011;63132;52.268;5.192;2022-10-15T08:02:10;101.47;;;47.72;;
74626;SDS011;63132;52.268;5.192;2022-10-15T08:04:40;95.25;;;44.70;;
74626;SDS011;63132;52.268;5.192;2022-10-15T08:07:05;84.47;;;43.80;;
74626;SDS011;63132;52.268;5.192;2022-10-15T08:09:30;86.30;;;43.97;;
74626;SDS011;63132;52.268;5.192;2022-10-15T08:11:56;75.38;;;39.45;;
74626;SDS011;63132;52.268;5.192;2022-10-15T08:14:21;74.60;;;39.57;;
74626;SDS011;63132;52.268;5.192;2022-10-15T08:16:47;66.10;;;37.30;;
74626;SDS011;63132;52.268;5.192;2022-10-15T08:19:12;70.97;;;37.17;;
74626;SDS011;63132;52.268;5.192;2022-10-15T08:21:41;67.50;;;36.08;;
74626;SDS011;63132;52.268;5.192;2022-10-15T08:24:07;60.97;;;34.67;;
74626;SDS011;63132;52.268;5.192;2022-10-15T08:26:33;65.40;;;35.07;;
74626;SDS011;63132;52.268;5.192;2022-10-15T08:28:59;57.20;;;33.37;;
74626;SDS011;63132;52.268;5.192;2022-10-15T08:31:24;51.30;;;30.43;;
74626;SDS011;63132;52.268;5.192;2022-10-15T08:33:50;50.13;;;30.70;;
74626;SDS011;63132;52.268;5.192;2022-10-15T08:36:15;48.55;;;30.30;;
74626;SDS011;63132;52.268;5.192;2022-10-15T08:38:41;47.00;;;28.85;;
74626;SDS011;63132;52.268;5.192;2022-10-15T08:41:13;44.73;;;29.07;;
74626;SDS011;63132;52.268;5.192;2022-10-15T08:43:56;42.40;;;28.15;;
74626;SDS011;63132;52.268;5.192;2022-10-15T08:46:36;38.60;;;26.55;;
74626;SDS011;63132;52.268;5.192;2022-10-15T08:49:06;35.83;;;26.17;;
74626;SDS011;63132;52.268;5.192;2022-10-15T08:52:01;40.90;;;27.15;;
74626;SDS011;63132;52.268;5.192;2022-10-15T08:54:36;41.30;;;26.90;;
74626;SDS011;63132;52.268;5.192;2022-10-15T08:57:45;35.57;;;24.93;;
74626;SDS011;63132;52.268;5.192;2022-10-15T09:02:49;33.22;;;23.67;;
74626;SDS011;63132;52.268;5.192;2022-10-15T09:05:35;32.92;;;22.92;;
74626;SDS011;63132;52.268;5.192;2022-10-15T09:10:50;29.63;;;20.80;;
74626;SDS011;63132;52.268;5.192;2022-10-15T09:13:32;28.88;;;20.90;;
74626;SDS011;63132;52.268;5.192;2022-10-15T09:16:03;28.60;;;20.65;;
74626;SDS011;63132;52.268;5.192;2022-10-15T09:18:37;24.10;;;18.83;;
74626;SDS011;63132;52.268;5.192;2022-10-15T09:21:05;27.98;;;19.48;;
74626;SDS011;63132;52.268;5.192;2022-10-15T09:23:33;24.90;;;19.55;;
74626;SDS011;63132;52.268;5.192;2022-10-15T09:28:46;26.47;;;18.67;;
74626;SDS011;63132;52.268;5.192;2022-10-15T09:31:40;25.23;;;19.10;;
74626;SDS011;63132;52.268;5.192;2022-10-15T09:34:13;22.92;;;17.20;;
74626;SDS011;63132;52.268;5.192;2022-10-15T09:36:51;20.08;;;16.15;;
74626;SDS011;63132;52.268;5.192;2022-10-15T09:44:27;18.80;;;15.15;;
74626;SDS011;63132;52.268;5.192;2022-10-15T09:47:00;20.25;;;15.77;;
74626;SDS011;63132;52.268;5.192;2022-10-15T09:49:26;20.47;;;15.90;;
74626;SDS011;63132;52.268;5.192;2022-10-15T09:54:34;21.90;;;15.35;;
74626;SDS011;63132;52.268;5.192;2022-10-15T09:57:06;22.67;;;14.32;;
74626;SDS011;63132;52.268;5.192;2022-10-15T09:59:33;23.95;;;15.48;;
74626;SDS011;63132;52.268;5.192;2022-10-15T10:02:00;20.40;;;15.13;;
74626;SDS011;63132;52.268;5.192;2022-10-15T10:04:28;18.33;;;14.60;;
74626;SDS011;63132;52.268;5.192;2022-10-15T10:06:59;21.70;;;13.90;;
74626;SDS011;63132;52.268;5.192;2022-10-15T10:09:28;17.83;;;13.75;;
74626;SDS011;63132;52.268;5.192;2022-10-15T10:11:58;17.73;;;13.47;;
74626;SDS011;63132;52.268;5.192;2022-10-15T10:17:04;18.25;;;13.93;;
74626;SDS011;63132;52.268;5.192;2022-10-15T10:19:30;19.73;;;14.23;;
74626;SDS011;63132;52.268;5.192;2022-10-15T10:24:50;20.00;;;14.18;;
74626;SDS011;63132;52.268;5.192;2022-10-15T10:27:26;17.60;;;12.73;;
74626;SDS011;63132;52.268;5.192;2022-10-15T10:29:58;19.65;;;14.40;;
74626;SDS011;63132;52.268;5.192;2022-10-15T10:32:27;21.17;;;15.10;;
74626;SDS011;63132;52.268;5.192;2022-10-15T10:34:57;21.15;;;15.75;;
74626;SDS011;63132;52.268;5.192;2022-10-15T10:37:24;19.00;;;14.40;;
74626;SDS011;63132;52.268;5.192;2022-10-15T10:39:54;19.95;;;15.05;;
74626;SDS011;63132;52.268;5.192;2022-10-15T10:42:23;17.87;;;14.27;;
74626;SDS011;63132;52.268;5.192;2022-10-15T10:44:50;19.30;;;14.80;;
74626;SDS011;63132;52.268;5.192;2022-10-15T10:47:18;18.38;;;14.68;;
74626;SDS011;63132;52.268;5.192;2022-10-15T10:52:31;18.10;;;14.60;;
74626;SDS011;63132;52.268;5.192;2022-10-15T10:55:07;16.35;;;13.10;;
74626;SDS011;63132;52.268;5.192;2022-10-15T11:02:52;16.98;;;12.18;;
74626;SDS011;63132;52.268;5.192;2022-10-15T11:05:21;16.40;;;12.70;;
74626;SDS011;63132;52.268;5.192;2022-10-15T11:10:33;15.30;;;12.63;;
74626;SDS011;63132;52.268;5.192;2022-10-15T11:22:30;13.00;;;10.63;;
74626;SDS011;63132;52.268;5.192;2022-10-15T11:24:40;13.63;;;10.80;;
74626;SDS011;63132;52.268;5.192;2022-10-15T11:27:21;14.13;;;11.05;;
74626;SDS011;63132;52.268;5.192;2022-10-15T11:30:14;13.27;;;10.25;;
74626;SDS011;63132;52.268;5.192;2022-10-15T11:38:52;11.85;;;8.35;;
74626;SDS011;63132;52.268;5.192;2022-10-15T11:49:39;9.38;;;7.43;;
74626;SDS011;63132;52.268;5.192;2022-10-15T11:54:56;9.65;;;7.05;;
74626;SDS011;63132;52.268;5.192;2022-10-15T11:57:35;8.40;;;6.40;;
74626;SDS011;63132;52.268;5.192;2022-10-15T12:02:54;9.10;;;7.00;;
74626;SDS011;63132;52.268;5.192;2022-10-15T12:05:42;8.50;;;6.57;;
74626;SDS011;63132;52.268;5.192;2022-10-15T12:08:14;8.90;;;6.63;;
74626;SDS011;63132;52.268;5.192;2022-10-15T12:24:01;7.35;;;6.10;;
74626;SDS011;63132;52.268;5.192;2022-10-15T12:26:31;9.20;;;6.32;;
74626;SDS011;63132;52.268;5.192;2022-10-15T12:28:59;10.45;;;6.68;;
74626;SDS011;63132;52.268;5.192;2022-10-15T12:31:41;11.73;;;7.10;;
74626;SDS011;63132;52.268;5.192;2022-10-15T12:34:24;8.48;;;7.00;;
74626;SDS011;63132;52.268;5.192;2022-10-15T12:37:04;9.05;;;7.47;;
74626;SDS011;63132;52.268;5.192;2022-10-15T12:39:38;9.85;;;7.80;;
74626;SDS011;63132;52.268;5.192;2022-10-15T12:45:05;10.18;;;8.02;;
74626;SDS011;63132;52.268;5.192;2022-10-15T12:47:50;9.27;;;7.68;;
74626;SDS011;63132;52.268;5.192;2022-10-15T12:50:22;9.60;;;8.23;;
74626;SDS011;63132;52.268;5.192;2022-10-15T12:55:22;13.23;;;9.70;;
74626;SDS011;63132;52.268;5.192;2022-10-15T12:57:53;10.47;;;8.63;;
74626;SDS011;63132;52.268;5.192;2022-10-15T13:00:39;12.23;;;9.15;;
74626;SDS011;63132;52.268;5.192;2022-10-15T13:11:36;10.60;;;8.60;;
74626;SDS011;63132;52.268;5.192;2022-10-15T13:16:57;10.40;;;9.00;;
74626;SDS011;63132;52.268;5.192;2022-10-15T13:19:36;9.30;;;7.82;;
74626;SDS011;63132;52.268;5.192;2022-10-15T13:22:04;12.35;;;8.05;;
74626;SDS011;63132;52.268;5.192;2022-10-15T13:24:43;9.60;;;7.85;;
74626;SDS011;63132;52.268;5.192;2022-10-15T13:27:33;8.80;;;7.80;;
74626;SDS011;63132;52.268;5.192;2022-10-15T13:32:30;8.23;;;7.20;;
74626;SDS011;63132;52.268;5.192;2022-10-15T13:34:59;8.27;;;7.30;;
74626;SDS011;63132;52.268;5.192;2022-10-15T13:37:33;10.05;;;7.40;;
74626;SDS011;63132;52.268;5.192;2022-10-15T13:40:02;8.30;;;7.30;;
74626;SDS011;63132;52.268;5.192;2022-10-15T13:42:28;9.10;;;7.93;;
74626;SDS011;63132;52.268;5.192;2022-10-15T13:44:56;9.05;;;7.63;;
74626;SDS011;63132;52.268;5.192;2022-10-15T13:50:11;8.20;;;6.97;;
74626;SDS011;63132;52.268;5.192;2022-10-15T13:55:37;7.22;;;6.45;;
74626;SDS011;63132;52.268;5.192;2022-10-15T13:58:25;7.50;;;6.03;;
74626;SDS011;63132;52.268;5.192;2022-10-15T14:03:22;7.57;;;5.13;;
74626;SDS011;63132;52.268;5.192;2022-10-15T14:05:52;5.40;;;4.78;;
74626;SDS011;63132;52.268;5.192;2022-10-15T14:10:58;5.20;;;4.15;;
74626;SDS011;63132;52.268;5.192;2022-10-15T14:13:25;5.35;;;4.20;;
74626;SDS011;63132;52.268;5.192;2022-10-15T14:18:45;5.40;;;3.45;;
74626;SDS011;63132;52.268;5.192;2022-10-15T14:21:14;6.57;;;3.07;;
74626;SDS011;63132;52.268;5.192;2022-10-15T14:23:45;4.05;;;2.40;;
74626;SDS011;63132;52.268;5.192;2022-10-15T14:26:12;7.40;;;1.80;;
74626;SDS011;63132;52.268;5.192;2022-10-15T14:28:40;5.00;;;1.70;;
74626;SDS011;63132;52.268;5.192;2022-10-15T14:31:21;4.25;;;1.52;;
74626;SDS011;63132;52.268;5.192;2022-10-15T14:33:52;3.22;;;1.30;;
74626;SDS011;63132;52.268;5.192;2022-10-15T14:38:46;4.82;;;1.15;;
74626;SDS011;63132;52.268;5.192;2022-10-15T14:41:30;3.13;;;1.20;;
74626;SDS011;63132;52.268;5.192;2022-10-15T14:44:00;3.17;;;1.10;;
74626;SDS011;63132;52.268;5.192;2022-10-15T14:46:31;4.30;;;1.00;;
74626;SDS011;63132;52.268;5.192;2022-10-15T14:49:01;4.80;;;1.20;;
74626;SDS011;63132;52.268;5.192;2022-10-15T14:51:27;3.80;;;1.20;;
74626;SDS011;63132;52.268;5.192;2022-10-15T14:53:53;4.93;;;1.00;;
74626;SDS011;63132;52.268;5.192;2022-10-15T14:56:23;5.57;;;1.10;;
74626;SDS011;63132;52.268;5.192;2022-10-15T14:58:54;3.25;;;1.02;;
74626;SDS011;63132;52.268;5.192;2022-10-15T15:01:21;5.18;;;0.90;;
74626;SDS011;63132;52.268;5.192;2022-10-15T15:03:49;5.17;;;1.13;;
74626;SDS011;63132;52.268;5.192;2022-10-15T15:06:16;5.90;;;1.23;;
74626;SDS011;63132;52.268;5.192;2022-10-15T15:08:42;6.80;;;1.63;;
74626;SDS011;63132;52.268;5.192;2022-10-15T15:11:11;4.68;;;1.05;;
74626;SDS011;63132;52.268;5.192;2022-10-15T15:13:40;4.55;;;1.02;;
74626;SDS011;63132;52.268;5.192;2022-10-15T15:16:11;6.40;;;1.60;;
74626;SDS011;63132;52.268;5.192;2022-10-15T15:18:37;7.28;;;1.25;;
74626;SDS011;63132;52.268;5.192;2022-10-15T15:21:05;3.27;;;1.00;;
74626;SDS011;63132;52.268;5.192;2022-10-15T15:23:34;5.80;;;1.20;;
74626;SDS011;63132;52.268;5.192;2022-10-15T15:26:00;8.63;;;1.00;;
74626;SDS011;63132;52.268;5.192;2022-10-15T15:28:26;6.40;;;1.15;;
74626;SDS011;63132;52.268;5.192;2022-10-15T15:31:00;6.80;;;1.50;;
74626;SDS011;63132;52.268;5.192;2022-10-15T15:33:29;5.50;;;1.02;;
74626;SDS011;63132;52.268;5.192;2022-10-15T15:38:36;6.45;;;1.20;;
74626;SDS011;63132;52.268;5.192;2022-10-15T15:41:12;8.48;;;1.65;;
74626;SDS011;63132;52.268;5.192;2022-10-15T15:43:39;8.07;;;1.42;;
74626;SDS011;63132;52.268;5.192;2022-10-15T15:46:05;8.80;;;1.40;;
74626;SDS011;63132;52.268;5.192;2022-10-15T15:48:31;9.90;;;2.10;;
74626;SDS011;63132;52.268;5.192;2022-10-15T15:51:03;5.57;;;1.50;;
74626;SDS011;63132;52.268;5.192;2022-10-15T15:53:49;4.83;;;1.30;;
74626;SDS011;63132;52.268;5.192;2022-10-15T15:56:15;5.70;;;1.17;;
74626;SDS011;63132;52.268;5.192;2022-10-15T15:58:41;6.90;;;1.50;;
74626;SDS011;63132;52.268;5.192;2022-10-15T16:01:06;8.07;;;1.50;;
74626;SDS011;63132;52.268;5.192;2022-10-15T16:03:32;4.67;;;1.10;;
74626;SDS011;63132;52.268;5.192;2022-10-15T16:05:57;6.00;;;1.43;;
74626;SDS011;63132;52.268;5.192;2022-10-15T16:08:22;8.80;;;1.65;;
74626;SDS011;63132;52.268;5.192;2022-10-15T16:10:48;5.20;;;1.40;;
74626;SDS011;63132;52.268;5.192;2022-10-15T16:13:13;5.70;;;1.50;;
74626;SDS011;63132;52.268;5.192;2022-10-15T16:15:39;9.97;;;1.43;;
74626;SDS011;63132;52.268;5.192;2022-10-15T16:18:04;8.83;;;1.50;;
74626;SDS011;63132;52.268;5.192;2022-10-15T16:20:30;7.53;;;1.63;;
74626;SDS011;63132;52.268;5.192;2022-10-15T16:22:55;6.73;;;1.40;;
74626;SDS011;63132;52.268;5.192;2022-10-15T16:25:20;4.10;;;1.20;;
74626;SDS011;63132;52.268;5.192;2022-10-15T16:27:46;6.10;;;1.48;;
74626;SDS011;63132;52.268;5.192;2022-10-15T16:30:16;7.45;;;1.50;;
74626;SDS011;63132;52.268;5.192;2022-10-15T16:32:42;9.32;;;1.60;;
74626;SDS011;63132;52.268;5.192;2022-10-15T16:35:07;5.22;;;1.50;;
74626;SDS011;63132;52.268;5.192;2022-10-15T16:37:33;4.63;;;1.10;;
74626;SDS011;63132;52.268;5.192;2022-10-15T16:39:59;5.80;;;1.27;;
74626;SDS011;63132;52.268;5.192;2022-10-15T16:42:24;4.27;;;1.27;;
74626;SDS011;63132;52.268;5.192;2022-10-15T16:44:49;4.37;;;1.13;;
74626;SDS011;63132;52.268;5.192;2022-10-15T16:47:16;6.13;;;1.30;;
74626;SDS011;63132;52.268;5.192;2022-10-15T16:49:42;6.43;;;1.30;;
74626;SDS011;63132;52.268;5.192;2022-10-15T16:52:07;7.80;;;1.90;;
74626;SDS011;63132;52.268;5.192;2022-10-15T16:54:33;6.30;;;1.33;;
74626;SDS011;63132;52.268;5.192;2022-10-15T16:56:58;6.37;;;1.27;;
74626;SDS011;63132;52.268;5.192;2022-10-15T16:59:24;5.40;;;1.23;;
74626;SDS011;63132;52.268;5.192;2022-10-15T17:01:49;4.72;;;1.73;;
74626;SDS011;63132;52.268;5.192;2022-10-15T17:04:15;6.20;;;1.50;;